createdAt,value
2023-04-02T00:00:18.507Z,10.50
2023-04-02T00:03:22.523Z,10.41
2023-04-02T00:06:35.077Z,10.35
2023-04-02T00:09:38.548Z,10.21
2023-04-02T00:13:19.193Z,10.23
2023-04-02T00:16:25.059Z,10.26
2023-04-02T00:19:36.772Z,10.18
2023-04-02T00:22:44.820Z,10.18
2023-04-02T00:25:47.993Z,10.24
2023-04-02T00:28:52.445Z,10.26
2023-04-02T00:31:59.182Z,10.25
2023-04-02T00:35:02.781Z,10.36
2023-04-02T00:38:06.346Z,10.35
2023-04-02T00:41:16.664Z,10.44
2023-04-02T00:44:21.892Z,10.51
2023-04-02T00:47:32.055Z,10.47
2023-04-02T00:50:41.316Z,10.31
2023-04-02T00:53:47.539Z,10.31
2023-04-02T00:56:55.157Z,10.22
2023-04-02T01:00:16.010Z,10.15
2023-04-02T01:03:23.086Z,10.29
2023-04-02T01:06:37.395Z,10.14
2023-04-02T01:10:15.640Z,10.13
2023-04-02T01:13:25.233Z,10.26
2023-04-02T01:16:31.427Z,10.27
2023-04-02T01:19:52.879Z,10.29
2023-04-02T01:23:32.712Z,10.22
2023-04-02T01:26:58.081Z,10.22
2023-04-02T01:30:05.258Z,10.32
2023-04-02T01:33:08.499Z,10.19
2023-04-02T01:36:26.412Z,10.21
2023-04-02T01:39:57.038Z,10.28
2023-04-02T01:43:48.261Z,10.27
2023-04-02T01:46:51.564Z,10.24
2023-04-02T01:50:17.546Z,10.36
2023-04-02T01:53:23.173Z,10.38
2023-04-02T01:56:28.110Z,10.40
2023-04-02T01:59:33.377Z,10.39
2023-04-02T02:02:39.935Z,10.45
2023-04-02T02:05:44.092Z,10.48
2023-04-02T02:08:48.910Z,10.56
2023-04-02T02:11:52.574Z,10.61
2023-04-02T02:14:55.740Z,10.56
2023-04-02T02:18:05.532Z,10.58
2023-04-02T02:21:10.712Z,10.69
2023-04-02T02:24:32.556Z,10.59
2023-04-02T02:28:18.301Z,10.50
2023-04-02T02:31:29.747Z,10.40
2023-04-02T02:34:40.250Z,10.47
2023-04-02T02:37:48.025Z,10.39
2023-04-02T02:40:56.842Z,10.56
2023-04-02T02:44:06.675Z,10.46
2023-04-02T02:47:25.401Z,10.56
2023-04-02T02:50:31.898Z,10.57
2023-04-02T02:53:49.888Z,10.64
2023-04-02T02:56:59.635Z,10.76
2023-04-02T03:00:08.022Z,10.59
2023-04-02T03:03:17.089Z,10.58
2023-04-02T03:06:21.762Z,10.57
2023-04-02T03:09:42.084Z,10.57
2023-04-02T03:12:53.744Z,10.61
2023-04-02T03:16:20.846Z,10.73
2023-04-02T03:20:16.148Z,10.60
2023-04-02T03:23:32.611Z,10.66
2023-04-02T03:26:42.429Z,10.70
2023-04-02T03:30:02.222Z,10.58
2023-04-02T03:33:30.539Z,10.59
2023-04-02T03:36:59.011Z,10.54
2023-04-02T03:40:13.129Z,10.56
2023-04-02T03:43:26.240Z,10.60
2023-04-02T03:46:37.751Z,10.48
2023-04-02T03:49:56.429Z,10.70
2023-04-02T03:53:01.814Z,10.58
2023-04-02T03:56:07.728Z,10.57
2023-04-02T03:59:36.037Z,10.57
2023-04-02T04:02:50.112Z,10.59
2023-04-02T04:06:07.136Z,10.59
2023-04-02T04:09:20.986Z,10.73
2023-04-02T04:12:24.233Z,10.68
2023-04-02T04:15:35.165Z,10.64
2023-04-02T04:18:52.010Z,10.70
2023-04-02T04:22:10.150Z,10.67
2023-04-02T04:25:35.154Z,10.76
2023-04-02T04:29:12.744Z,10.61
2023-04-02T04:32:34.530Z,10.62
2023-04-02T04:35:50.182Z,10.61
2023-04-02T04:38:59.587Z,10.60
2023-04-02T04:42:07.579Z,10.64
2023-04-02T04:45:28.931Z,10.70
2023-04-02T04:49:08.587Z,10.71
2023-04-02T04:52:24.537Z,10.73
2023-04-02T04:55:35.321Z,10.74
2023-04-02T04:58:49.047Z,10.77
2023-04-02T05:02:05.980Z,10.70
2023-04-02T05:05:25.193Z,10.54
2023-04-02T05:08:35.903Z,10.77
2023-04-02T05:11:47.524Z,10.84
2023-04-02T05:15:03.001Z,10.75
2023-04-02T05:18:33.120Z,10.76
2023-04-02T05:21:47.405Z,10.75
2023-04-02T05:25:21.900Z,10.71
2023-04-02T05:28:37.131Z,10.82
2023-04-02T05:32:11.093Z,10.81
2023-04-02T05:35:21.250Z,10.76
2023-04-02T05:38:30.497Z,10.79
2023-04-02T05:41:46.052Z,10.83
2023-04-02T05:45:28.114Z,10.94
2023-04-02T05:48:43.504Z,10.99
2023-04-02T05:51:54.131Z,10.99
2023-04-02T05:55:48.248Z,11.12
2023-04-02T05:58:58.284Z,11.08
2023-04-02T06:02:31.063Z,11.13
2023-04-02T06:05:40.252Z,11.22
2023-04-02T06:08:52.278Z,11.39
2023-04-02T06:12:24.711Z,11.52
2023-04-02T06:15:28.044Z,11.48
2023-04-02T06:18:37.324Z,11.61
2023-04-02T06:21:45.443Z,11.57
2023-04-02T06:25:02.512Z,11.71
2023-04-02T06:28:17.347Z,11.82
2023-04-02T06:31:42.661Z,11.84
2023-04-02T06:34:47.988Z,12.01
2023-04-02T06:37:56.302Z,11.98
2023-04-02T06:41:12.923Z,11.98
2023-04-02T06:44:31.862Z,12.09
2023-04-02T06:48:04.279Z,12.15
2023-04-02T06:51:23.243Z,12.07
2023-04-02T06:54:26.452Z,12.04
2023-04-02T06:57:36.046Z,12.09
2023-04-02T07:00:43.840Z,12.26
2023-04-02T07:03:52.741Z,12.32
2023-04-02T07:07:07.093Z,12.30
2023-04-02T07:10:14.229Z,12.40
2023-04-02T07:13:25.049Z,12.43
2023-04-02T07:16:33.744Z,12.38
2023-04-02T07:19:37.012Z,12.50
2023-04-02T07:22:40.895Z,12.47
2023-04-02T07:25:44.590Z,12.41
2023-04-02T07:28:47.778Z,12.52
2023-04-02T07:31:53.019Z,12.40
2023-04-02T07:34:56.184Z,12.37
2023-04-02T07:37:59.112Z,12.44
2023-04-02T07:41:06.440Z,12.42
2023-04-02T07:44:11.074Z,12.52
2023-04-02T07:47:13.947Z,12.61
2023-04-02T07:50:18.017Z,12.70
2023-04-02T07:53:34.633Z,12.73
2023-04-02T07:56:38.694Z,12.46
2023-04-02T07:59:41.707Z,12.64
2023-04-02T08:02:45.593Z,12.60
2023-04-02T08:05:54.438Z,12.62
2023-04-02T08:08:58.649Z,12.66
2023-04-02T08:12:02.263Z,12.67
2023-04-02T08:15:07.115Z,12.49
2023-04-02T08:18:11.703Z,12.68
2023-04-02T08:21:16.538Z,12.67
2023-04-02T08:24:21.185Z,12.69
2023-04-02T08:27:26.077Z,12.84
2023-04-02T08:30:29.530Z,12.95
2023-04-02T08:33:32.792Z,13.14
2023-04-02T08:36:41.724Z,13.08
2023-04-02T08:39:45.128Z,13.07
2023-04-02T08:43:29.496Z,13.04
2023-04-02T08:46:36.402Z,13.01
2023-04-02T08:49:49.573Z,13.16
2023-04-02T08:52:53.171Z,13.19
2023-04-02T08:56:18.120Z,13.47
2023-04-02T08:59:33.732Z,13.63
2023-04-02T09:02:41.967Z,13.48
2023-04-02T09:05:47.330Z,13.61
2023-04-02T09:08:53.601Z,13.50
2023-04-02T09:12:04.411Z,13.45
2023-04-02T09:15:10.668Z,13.35
2023-04-02T09:18:19.301Z,13.35
2023-04-02T09:21:22.638Z,13.24
2023-04-02T09:24:26.216Z,13.38
2023-04-02T09:27:32.435Z,13.52
2023-04-02T09:30:43.510Z,13.68
2023-04-02T09:33:50.069Z,13.78
2023-04-02T09:36:53.142Z,14.13
2023-04-02T09:40:29.708Z,14.34
2023-04-02T09:43:38.154Z,14.53
2023-04-02T09:46:49.784Z,14.55
2023-04-02T09:49:53.007Z,14.67
2023-04-02T09:52:56.583Z,14.97
2023-04-02T09:56:26.708Z,14.83
2023-04-02T09:59:30.064Z,14.50
2023-04-02T10:02:33.591Z,14.21
2023-04-02T10:05:40.967Z,14.02
2023-04-02T10:08:45.813Z,14.14
2023-04-02T10:11:51.029Z,14.19
2023-04-02T10:14:56.511Z,14.44
2023-04-02T10:18:12.211Z,14.63
2023-04-02T10:21:23.792Z,14.82
2023-04-02T10:24:28.975Z,14.83
2023-04-02T10:27:45.368Z,14.96
2023-04-02T10:31:00.707Z,15.08
2023-04-02T10:34:17.639Z,15.01
2023-04-02T10:37:32.844Z,14.91
2023-04-02T10:40:39.882Z,15.11
2023-04-02T10:44:12.737Z,15.15
2023-04-02T10:47:27.334Z,15.19
2023-04-02T10:50:44.978Z,15.38
2023-04-02T10:53:54.848Z,15.40
2023-04-02T10:57:07.861Z,15.63
2023-04-02T11:00:11.579Z,15.39
2023-04-02T11:03:42.478Z,15.14
2023-04-02T11:07:03.544Z,14.89
2023-04-02T11:10:20.066Z,14.47
2023-04-02T11:13:31.585Z,14.40
2023-04-02T11:16:37.751Z,14.77
2023-04-02T11:19:44.414Z,14.77
2023-04-02T11:23:13.873Z,14.99
2023-04-02T11:26:42.998Z,14.78
2023-04-02T11:30:22.686Z,14.48
2023-04-02T11:33:48.134Z,14.41
2023-04-02T11:36:55.562Z,14.38
2023-04-02T11:40:06.205Z,14.33
2023-04-02T11:43:42.065Z,15.24
2023-04-02T11:46:45.855Z,16.04
2023-04-02T11:49:55.970Z,16.58
2023-04-02T11:53:03.259Z,17.20
2023-04-02T11:56:07.941Z,17.31
2023-04-02T11:59:36.583Z,17.20
2023-04-02T12:02:49.471Z,18.01
2023-04-02T12:06:06.439Z,17.38
2023-04-02T12:09:31.031Z,16.95
2023-04-02T12:12:40.557Z,16.70
2023-04-02T12:15:49.057Z,15.66
2023-04-02T12:18:54.666Z,15.20
2023-04-02T12:21:59.578Z,14.71
2023-04-02T12:25:05.323Z,14.12
2023-04-02T12:28:11.580Z,13.86
2023-04-02T12:31:19.678Z,13.48
2023-04-02T12:34:26.286Z,13.37
2023-04-02T12:37:30.863Z,13.29
2023-04-02T12:40:34.334Z,13.16
2023-04-02T12:43:38.280Z,13.08
2023-04-02T12:46:42.609Z,12.98
2023-04-02T12:49:47.363Z,12.71
2023-04-02T12:52:55.153Z,12.68
2023-04-02T12:55:58.709Z,12.69
2023-04-02T12:59:02.032Z,12.99
2023-04-02T13:02:31.093Z,13.60
2023-04-02T13:09:03.412Z,14.70
2023-04-02T13:12:21.098Z,14.90
2023-04-02T13:15:30.809Z,15.13
2023-04-02T13:18:37.298Z,14.88
2023-04-02T13:21:40.986Z,14.95
2023-04-02T13:24:44.547Z,14.65
2023-04-02T13:27:48.041Z,14.73
2023-04-02T13:30:51.312Z,14.60
2023-04-02T13:33:54.831Z,15.02
2023-04-02T13:36:58.361Z,15.08
2023-04-02T13:40:02.294Z,14.88
2023-04-02T13:43:08.213Z,14.78
2023-04-02T13:46:23.849Z,14.89
2023-04-02T13:49:27.984Z,15.18
2023-04-02T13:52:31.261Z,15.20
2023-04-02T13:55:41.649Z,15.14
2023-04-02T13:58:46.029Z,15.23
2023-04-02T14:01:52.585Z,14.77
2023-04-02T14:05:15.929Z,14.56
2023-04-02T14:08:50.814Z,14.56
2023-04-02T14:11:59.980Z,14.04
2023-04-02T14:15:30.722Z,13.78
2023-04-02T14:19:08.336Z,13.61
2023-04-02T14:22:26.523Z,13.67
2023-04-02T14:25:44.500Z,13.63
2023-04-02T14:29:16.612Z,13.65
2023-04-02T14:32:31.530Z,13.75
2023-04-02T14:35:43.612Z,14.07
2023-04-02T14:39:08.610Z,14.41
2023-04-02T14:42:31.387Z,14.51
2023-04-02T14:45:58.803Z,14.58
2023-04-02T14:49:15.571Z,14.25
2023-04-02T14:52:22.947Z,14.06
2023-04-02T14:55:47.074Z,14.04
2023-04-02T14:59:03.389Z,13.85
2023-04-02T15:02:33.076Z,13.86
2023-04-02T15:05:43.040Z,13.85
2023-04-02T15:09:08.299Z,13.88
2023-04-02T15:12:33.882Z,13.97
2023-04-02T15:15:41.572Z,14.07
2023-04-02T15:18:44.735Z,13.92
2023-04-02T15:22:21.790Z,13.83
2023-04-02T15:25:40.399Z,13.88
2023-04-02T15:28:55.088Z,13.68
2023-04-02T15:32:21.160Z,13.32
2023-04-02T15:35:41.719Z,13.13
2023-04-02T15:38:51.312Z,13.03
2023-04-02T15:42:09.749Z,12.89
2023-04-02T15:45:12.765Z,12.88
2023-04-02T15:48:23.542Z,12.89
2023-04-02T15:51:55.586Z,12.98
2023-04-02T15:55:22.871Z,12.94
2023-04-02T15:58:32.361Z,12.93
2023-04-02T16:01:40.933Z,12.85
2023-04-02T16:05:03.881Z,12.74
2023-04-02T16:08:25.288Z,12.59
2023-04-02T16:11:28.739Z,12.23
2023-04-02T16:14:33.783Z,12.07
2023-04-02T16:17:51.607Z,11.94
2023-04-02T16:20:57.349Z,11.85
2023-04-02T16:24:00.560Z,11.92
2023-04-02T16:27:15.072Z,11.76
2023-04-02T16:30:34.553Z,11.62
2023-04-02T16:34:15.734Z,11.53
2023-04-02T16:37:45.016Z,11.46
2023-04-02T16:41:26.322Z,11.42
2023-04-02T16:45:15.414Z,11.34
2023-04-02T16:48:43.451Z,11.42
2023-04-02T16:52:13.661Z,11.41
2023-04-02T16:55:52.326Z,11.42
2023-04-02T16:59:27.723Z,11.37
2023-04-02T17:03:15.097Z,11.33
2023-04-02T17:06:18.290Z,11.24
2023-04-02T17:09:50.092Z,11.35
2023-04-02T17:13:28.203Z,11.09
2023-04-02T17:16:41.040Z,10.83
2023-04-02T17:19:44.938Z,10.67
2023-04-02T17:22:49.041Z,10.53
2023-04-02T17:26:00.833Z,10.39
2023-04-02T17:29:09.556Z,10.10
2023-04-02T17:32:22.368Z,9.98
2023-04-02T17:35:55.444Z,9.90
2023-04-02T17:38:58.712Z,9.69
2023-04-02T17:42:29.069Z,9.57
2023-04-02T17:45:53.355Z,9.44
2023-04-02T17:49:36.988Z,9.29
2023-04-02T17:53:08.542Z,9.02
2023-04-02T17:56:24.087Z,8.80
2023-04-02T18:00:06.264Z,8.68
2023-04-02T18:03:49.603Z,8.66
2023-04-02T18:07:11.081Z,8.44
2023-04-02T18:10:52.941Z,8.18
2023-04-02T18:14:00.697Z,8.03
2023-04-02T18:17:26.204Z,7.83
2023-04-02T18:20:55.797Z,7.74
2023-04-02T18:24:14.121Z,7.62
2023-04-02T18:27:26.530Z,7.56
2023-04-02T18:30:54.070Z,7.42
2023-04-02T18:34:20.006Z,7.29
2023-04-02T18:37:49.750Z,7.18
2023-04-02T18:41:17.739Z,7.07
2023-04-02T18:44:29.278Z,7.01
2023-04-02T18:48:07.154Z,7.04
2023-04-02T18:51:18.781Z,6.83
2023-04-02T18:54:36.043Z,6.90
2023-04-02T18:57:42.498Z,6.75
2023-04-02T19:00:46.789Z,6.68
2023-04-02T19:04:02.733Z,6.59
2023-04-02T19:07:16.072Z,6.54
2023-04-02T19:10:35.448Z,6.54
2023-04-02T19:13:41.794Z,6.49
2023-04-02T19:17:04.700Z,6.37
2023-04-02T19:20:11.105Z,6.33
2023-04-02T19:23:14.518Z,6.36
2023-04-02T19:26:26.831Z,6.40
2023-04-02T19:29:42.615Z,6.29
2023-04-02T19:32:46.138Z,6.14
2023-04-02T19:35:58.900Z,6.10
2023-04-02T19:39:11.628Z,6.18
2023-04-02T19:42:44.256Z,6.11
2023-04-02T19:45:49.292Z,5.95
2023-04-02T19:49:12.398Z,6.03
2023-04-02T19:52:16.384Z,5.92
2023-04-02T19:55:19.827Z,5.95
2023-04-02T19:58:33.207Z,5.98
2023-04-02T20:01:36.647Z,5.99
2023-04-02T20:04:39.910Z,5.92
2023-04-02T20:07:42.821Z,5.93
2023-04-02T20:10:47.874Z,5.87
2023-04-02T20:13:52.948Z,5.89
2023-04-02T20:16:56.192Z,5.73
2023-04-02T20:19:59.552Z,5.71
2023-04-02T20:23:02.673Z,5.83
2023-04-02T20:26:06.833Z,5.67
2023-04-02T20:29:10.044Z,5.66
2023-04-02T20:32:13.756Z,5.57
2023-04-02T20:35:17.500Z,5.51
2023-04-02T20:38:20.788Z,5.57
2023-04-02T20:41:24.228Z,5.47
2023-04-02T20:44:28.604Z,5.34
2023-04-02T20:47:32.351Z,5.28
2023-04-02T20:50:35.731Z,5.29
2023-04-02T20:53:39.261Z,5.31
2023-04-02T20:56:45.476Z,5.28
2023-04-02T20:59:48.929Z,5.29
2023-04-02T21:02:52.254Z,5.27
2023-04-02T21:05:55.556Z,5.24
2023-04-02T21:08:59.306Z,5.25
2023-04-02T21:12:02.610Z,5.28
2023-04-02T21:15:06.773Z,5.26
2023-04-02T21:18:09.856Z,5.26
2023-04-02T21:21:14.142Z,5.23
2023-04-02T21:24:17.479Z,5.22
2023-04-02T21:27:23.768Z,5.19
2023-04-02T21:30:27.113Z,5.18
2023-04-02T21:33:32.761Z,5.19
2023-04-02T21:36:39.615Z,5.03
2023-04-02T21:39:42.922Z,5.03
2023-04-02T21:42:46.132Z,5.13
2023-04-02T21:45:49.067Z,4.98
2023-04-02T21:48:54.260Z,4.92
2023-04-02T21:51:57.310Z,4.89
2023-04-02T21:55:00.249Z,4.86
2023-04-02T21:58:03.506Z,4.78
2023-04-02T22:01:11.162Z,4.83
2023-04-02T22:04:20.838Z,4.78
2023-04-02T22:07:23.792Z,4.83
2023-04-02T22:10:27.187Z,4.80
2023-04-02T22:13:30.322Z,4.77
2023-04-02T22:16:35.172Z,4.75
2023-04-02T22:19:38.384Z,4.79
2023-04-02T22:22:41.843Z,4.76
2023-04-02T22:25:44.930Z,4.73
2023-04-02T22:28:48.116Z,4.83
2023-04-02T22:31:51.294Z,4.78
2023-04-02T22:34:54.554Z,4.67
2023-04-02T22:37:57.614Z,4.73
2023-04-02T22:41:03.910Z,4.78
2023-04-02T22:44:07.264Z,4.78
2023-04-02T22:47:10.790Z,4.69
2023-04-02T22:50:13.862Z,4.68
2023-04-02T22:53:17.098Z,4.62
2023-04-02T22:56:23.113Z,4.63
2023-04-02T22:59:26.894Z,4.69
2023-04-02T23:02:32.009Z,4.83
2023-04-02T23:05:35.077Z,4.85
2023-04-02T23:08:39.036Z,4.84
2023-04-02T23:11:43.016Z,4.89
2023-04-02T23:14:46.311Z,4.97
2023-04-02T23:17:49.328Z,4.94
2023-04-02T23:20:54.656Z,4.93
2023-04-02T23:23:58.301Z,5.00
2023-04-02T23:27:01.580Z,5.01
2023-04-02T23:30:05.614Z,4.94
2023-04-02T23:33:09.292Z,4.98
2023-04-02T23:36:30.870Z,4.88
2023-04-02T23:39:34.569Z,4.92
2023-04-02T23:42:37.768Z,4.95
2023-04-02T23:45:41.615Z,4.93
2023-04-02T23:48:46.074Z,4.95
2023-04-02T23:51:49.621Z,4.98
2023-04-02T23:54:52.542Z,4.92
2023-04-02T23:57:56.012Z,4.94
